Time;durP1;ratioP1;P1;durP2;ratioP2;P2;SDS_P1;SDS_P2;PMS_P1;PMS_P2;Temp;Humidity;BMP_temperature;BMP_pressure;BME280_temperature;BME280_humidity;BME280_pressure;Samples;Min_cycle;Max_cycle;Signal;HPM_P1;HPM_P2
2022/08/11 00:01:51;;;;;;;4.53;3.63;;;26.50;43.30;;;;;;5002126;28;20474;-84
2022/08/11 00:04:22;;;;;;;4.23;3.93;;;26.50;43.40;;;;;;5007794;28;20591;-83
2022/08/11 00:06:51;;;;;;;3.83;3.53;;;26.50;43.50;;;;;;5008434;28;20462;-85
2022/08/11 00:09:21;;;;;;;4.20;3.80;;;26.40;43.80;;;;;;5006920;28;20961;-86
2022/08/11 00:11:51;;;;;;;4.70;3.80;;;26.40;43.90;;;;;;4981659;28;20523;-84
2022/08/11 00:14:24;;;;;;;3.97;3.67;;;26.40;44.30;;;;;;5002778;28;20475;-84
2022/08/11 00:17:00;;;;;;;3.83;3.53;;;26.40;44.30;;;;;;4980674;28;20544;-84
2022/08/11 00:19:31;;;;;;;4.30;3.90;;;26.40;44.90;;;;;;4984497;28;20506;-84
2022/08/11 00:22:22;;;;;;;5.00;4.43;;;26.30;45.20;;;;;;4985474;28;20448;-82
2022/08/11 00:24:49;;;;;;;4.90;4.50;;;26.30;46.00;;;;;;4972429;28;20459;-84
2022/08/11 00:27:19;;;;;;;5.13;4.30;;;26.30;46.20;;;;;;4973323;28;20626;-84
2022/08/11 00:29:53;;;;;;;4.50;4.20;;;26.20;46.50;;;;;;4987901;28;20536;-84
2022/08/11 00:32:21;;;;;;;4.93;4.30;;;26.20;46.50;;;;;;4991768;28;20466;-85
2022/08/11 00:34:49;;;;;;;4.30;4.00;;;26.20;46.70;;;;;;4987693;28;20480;-84
2022/08/11 00:37:20;;;;;;;4.60;4.20;;;26.20;46.90;;;;;;4973291;28;20466;-82
2022/08/11 00:39:53;;;;;;;4.43;4.13;;;26.20;47.30;;;;;;4987838;28;20477;-84
2022/08/11 00:43:04;;;;;;;8.23;3.70;;;26.10;47.30;;;;;;4987100;28;20459;-84
2022/08/11 00:45:37;;;;;;;4.47;4.07;;;26.10;46.80;;;;;;4963963;28;20456;-83
2022/08/11 00:48:22;;;;;;;6.60;3.10;;;26.00;46.40;;;;;;4986540;28;20459;-83
2022/08/11 00:51:01;;;;;;;4.00;3.70;;;26.00;45.70;;;;;;4986901;28;20462;-84
2022/08/11 00:53:27;;;;;;;3.93;3.63;;;26.00;45.80;;;;;;4989447;28;20521;-84
2022/08/11 00:56:12;;;;;;;3.90;3.60;;;25.90;45.20;;;;;;4985845;28;20517;-85
2022/08/11 00:59:10;;;;;;;4.00;3.70;;;25.90;44.70;;;;;;4984491;28;20482;-85
2022/08/11 01:02:14;;;;;;;4.10;3.30;;;25.80;44.60;;;;;;4986591;28;20470;-84
2022/08/11 01:05:12;;;;;;;3.63;3.33;;;25.80;44.80;;;;;;4985276;28;20478;-85
2022/08/11 01:08:10;;;;;;;3.10;2.90;;;25.80;44.90;;;;;;4969810;28;20459;-86
2022/08/11 01:11:09;;;;;;;3.80;3.50;;;25.80;44.70;;;;;;4988175;28;20482;-83
2022/08/11 01:14:19;;;;;;;3.80;3.50;;;25.80;44.80;;;;;;4986461;28;20483;-84
2022/08/11 01:17:20;;;;;;;11.90;3.47;;;25.80;44.70;;;;;;4968190;28;20550;-84
2022/08/11 01:20:02;;;;;;;3.30;3.10;;;25.80;44.80;;;;;;4984563;28;20470;-84
2022/08/11 01:23:33;;;;;;;3.63;3.33;;;25.80;44.80;;;;;;4982357;28;20486;-84
2022/08/11 01:26:38;;;;;;;3.60;2.93;;;25.80;44.70;;;;;;4985805;28;20475;-86
2022/08/11 01:29:44;;;;;;;3.27;3.07;;;25.70;44.80;;;;;;4985977;28;20573;-85
2022/08/11 01:32:23;;;;;;;3.50;3.20;;;25.60;44.50;;;;;;4987864;28;20458;-86
2022/08/11 01:35:09;;;;;;;3.87;3.57;;;25.60;44.60;;;;;;4984974;28;20969;-83
2022/08/11 01:38:05;;;;;;;3.80;3.40;;;25.60;44.90;;;;;;4985552;28;20453;-82
2022/08/11 01:40:50;;;;;;;4.33;3.47;;;25.60;44.80;;;;;;4986922;28;20541;-84
2022/08/11 01:46:49;;;;;;;3.80;3.50;;;25.50;45.20;;;;;;4986115;28;20478;-83
2022/08/11 01:49:33;;;;;;;3.80;3.50;;;25.50;45.30;;;;;;4988989;28;20459;-82
2022/08/11 01:52:28;;;;;;;3.80;3.50;;;25.40;45.60;;;;;;4992147;28;20489;-83
2022/08/11 01:55:05;;;;;;;4.90;4.40;;;25.50;46.50;;;;;;4983716;28;20459;-84
2022/08/11 01:57:32;;;;;;;7.37;3.87;;;25.40;47.30;;;;;;4988250;28;20464;-83
2022/08/11 02:00:13;;;;;;;4.23;3.93;;;25.30;47.30;;;;;;4985919;28;20549;-83
2022/08/11 02:02:54;;;;;;;4.47;4.07;;;25.40;47.40;;;;;;4985337;28;20447;-83
2022/08/11 02:05:40;;;;;;;3.83;3.53;;;25.40;48.40;;;;;;4987633;28;20808;-83
2022/08/11 02:08:37;;;;;;;4.30;4.00;;;25.40;48.80;;;;;;4990613;28;20467;-84
2022/08/11 02:11:30;;;;;;;4.43;4.00;;;25.40;51.10;;;;;;4988546;28;20461;-83
2022/08/11 02:14:26;;;;;;;4.00;3.70;;;25.20;51.50;;;;;;4986153;28;20490;-83
2022/08/11 02:17:05;;;;;;;4.27;3.87;;;25.10;53.20;;;;;;4987341;28;20459;-83
2022/08/11 02:26:08;;;;;;;4.90;4.33;;;25.00;57.10;;;;;;4982581;28;20459;-83
2022/08/11 02:28:59;;;;;;;4.13;3.80;;;24.70;57.60;;;;;;4970832;28;20459;-83
2022/08/11 02:35:12;;;;;;;5.10;4.10;;;24.60;55.80;;;;;;4981526;28;20487;-85
2022/08/11 02:38:04;;;;;;;3.83;3.53;;;24.60;56.90;;;;;;4984520;28;20474;-84
2022/08/11 02:40:46;;;;;;;4.03;3.73;;;24.60;53.70;;;;;;4987290;28;20544;-84
2022/08/11 02:43:36;;;;;;;4.13;3.83;;;24.60;51.90;;;;;;4987859;28;20509;-84
2022/08/11 02:46:19;;;;;;;5.27;3.53;;;24.60;50.40;;;;;;4987102;28;22469;-83
2022/08/11 02:52:29;;;;;;;4.00;3.70;;;24.50;51.40;;;;;;4993613;28;20458;-83
2022/08/11 02:55:26;;;;;;;4.20;3.80;;;24.40;51.00;;;;;;4954827;28;20454;-83
2022/08/11 02:58:43;;;;;;;4.10;3.70;;;24.40;50.60;;;;;;5009848;28;20486;-83
2022/08/11 03:01:34;;;;;;;4.10;3.80;;;24.50;50.80;;;;;;4997489;28;20433;-81
2022/08/11 03:04:24;;;;;;;3.80;3.50;;;24.40;51.00;;;;;;4992146;28;20521;-82
2022/08/11 03:07:17;;;;;;;4.00;3.70;;;24.10;51.80;;;;;;5010471;28;20505;-86
2022/08/11 03:10:10;;;;;;;4.60;3.87;;;23.90;51.60;;;;;;5008672;28;20463;-84
2022/08/11 03:16:46;;;;;;;3.10;2.90;;;23.60;51.20;;;;;;4966322;28;20459;-84
2022/08/11 03:19:41;;;;;;;3.67;3.37;;;23.70;50.70;;;;;;4973202;28;21664;-83
2022/08/11 03:22:42;;;;;;;3.77;3.47;;;23.50;50.70;;;;;;4977227;28;20486;-85
2022/08/11 03:25:38;;;;;;;4.93;3.63;;;23.50;50.50;;;;;;4986594;28;20508;-85
2022/08/11 03:28:36;;;;;;;3.57;3.27;;;23.40;51.50;;;;;;4955094;28;20454;-84
2022/08/11 03:31:27;;;;;;;4.10;3.80;;;23.50;51.70;;;;;;4994978;28;20439;-84
2022/08/11 03:34:14;;;;;;;5.50;5.10;;;23.50;50.90;;;;;;4981145;28;20471;-84
2022/08/11 03:37:03;;;;;;;3.70;3.43;;;23.60;50.70;;;;;;4970320;28;20517;-84
2022/08/11 03:40:01;;;;;;;4.40;4.00;;;23.60;50.70;;;;;;4990501;28;20514;-85
2022/08/11 03:42:34;;;;;;;4.00;3.43;;;23.60;50.60;;;;;;4971903;28;20475;-83
2022/08/11 03:45:26;;;;;;;3.87;3.50;;;23.70;50.60;;;;;;4989212;28;21129;-84
2022/08/11 03:48:16;;;;;;;3.77;3.47;;;23.70;50.40;;;;;;4987624;28;20462;-83
2022/08/11 03:51:21;;;;;;;4.87;3.90;;;23.80;50.30;;;;;;4987195;28;20466;-84
2022/08/11 03:54:21;;;;;;;3.83;3.53;;;23.80;50.20;;;;;;4971170;28;20489;-83
2022/08/11 03:57:16;;;;;;;5.87;3.83;;;23.90;49.50;;;;;;4972711;28;20529;-82
2022/08/11 04:00:23;;;;;;;6.53;4.07;;;23.70;50.30;;;;;;4988413;28;20488;-85
2022/08/11 04:03:45;;;;;;;6.10;4.03;;;23.60;50.40;;;;;;4988634;28;20480;-84
2022/08/11 04:06:53;;;;;;;6.23;3.50;;;23.40;50.80;;;;;;4925141;28;20483;-82
2022/08/11 04:09:52;;;;;;;4.27;3.87;;;23.40;51.20;;;;;;4992199;28;21035;-83
2022/08/11 04:12:51;;;;;;;4.33;3.93;;;23.50;51.30;;;;;;4976562;28;20550;-83
2022/08/11 04:15:59;;;;;;;12.70;4.27;;;23.60;51.10;;;;;;4992178;28;20438;-84
2022/08/11 04:18:50;;;;;;;4.13;3.73;;;23.60;51.30;;;;;;4976748;28;20491;-81
2022/08/11 04:21:38;;;;;;;5.70;4.20;;;23.40;51.10;;;;;;4985093;28;21838;-84
2022/08/11 04:24:36;;;;;;;4.07;3.67;;;23.40;52.10;;;;;;4996117;28;20479;-82
2022/08/11 04:27:43;;;;;;;5.60;4.23;;;23.60;52.20;;;;;;4996277;28;20943;-82
2022/08/11 04:30:20;;;;;;;5.33;3.63;;;23.40;51.40;;;;;;4993833;28;20486;-86
2022/08/11 04:33:33;;;;;;;4.50;3.80;;;23.20;51.70;;;;;;4977475;28;20480;-84
2022/08/11 04:36:08;;;;;;;7.00;4.23;;;23.10;51.60;;;;;;4991591;28;20463;-85
2022/08/11 04:38:45;;;;;;;4.40;4.00;;;23.30;50.70;;;;;;5007835;28;20953;-87
2022/08/11 04:41:32;;;;;;;4.27;3.90;;;23.30;50.80;;;;;;4980268;28;20453;-83
2022/08/11 04:44:30;;;;;;;4.50;3.90;;;23.20;51.00;;;;;;4989182;28;20534;-83
2022/08/11 05:01:39;;;;;;;6.73;4.00;;;23.10;51.00;;;;;;4988946;28;20451;-84
2022/08/11 05:07:48;;;;;;;3.93;3.63;;;22.90;52.10;;;;;;4988730;28;20673;-85
2022/08/11 05:10:37;;;;;;;4.20;3.80;;;22.80;52.10;;;;;;4991826;28;20544;-83
2022/08/11 05:36:59;;;;;;;5.37;4.10;;;23.00;51.20;;;;;;4990184;28;20490;-84
2022/08/11 05:57:01;;;;;;;3.60;3.40;;;23.10;49.60;;;;;;4988525;28;20491;-83
2022/08/11 05:59:30;;;;;;;4.83;3.47;;;23.10;49.90;;;;;;4988039;28;20483;-85
2022/08/11 06:02:06;;;;;;;3.83;3.53;;;23.00;49.70;;;;;;4990931;28;20474;-85
2022/08/11 06:04:37;;;;;;;8.00;3.90;;;22.90;49.90;;;;;;4998858;28;20554;-84
2022/08/11 06:07:11;;;;;;;4.10;3.57;;;23.00;50.40;;;;;;4987095;28;20466;-82
2022/08/11 06:09:50;;;;;;;4.00;3.60;;;23.00;50.30;;;;;;4992206;28;20467;-83
2022/08/11 06:12:22;;;;;;;5.07;4.10;;;23.00;50.40;;;;;;4975238;28;20465;-83
2022/08/11 06:14:54;;;;;;;4.47;4.07;;;23.20;50.20;;;;;;4972088;28;20493;-84
2022/08/11 06:17:30;;;;;;;4.20;3.90;;;23.40;49.90;;;;;;4969227;28;20518;-82
2022/08/11 06:20:11;;;;;;;4.93;3.30;;;23.30;49.70;;;;;;4986688;28;20593;-83
2022/08/11 06:22:42;;;;;;;5.20;4.23;;;23.30;50.10;;;;;;4987300;28;20884;-83
2022/08/11 06:25:11;;;;;;;4.10;3.80;;;23.40;50.00;;;;;;4969234;28;21740;-82
2022/08/11 06:27:40;;;;;;;3.83;3.50;;;23.80;49.80;;;;;;4985417;28;20456;-85
2022/08/11 06:30:15;;;;;;;5.07;4.07;;;25.40;48.20;;;;;;4969767;28;20443;-84
2022/08/11 06:32:54;;;;;;;5.20;4.20;;;28.10;44.80;;;;;;4984783;28;20471;-84
2022/08/11 06:36:03;;;;;;;4.17;3.80;;;31.20;40.00;;;;;;4967940;28;21445;-84
2022/08/11 06:39:02;;;;;;;4.47;4.17;;;31.90;36.60;;;;;;4983594;28;20454;-85
2022/08/11 06:41:47;;;;;;;4.00;3.63;;;29.00;38.70;;;;;;4988520;28;20448;-83
2022/08/11 06:44:40;;;;;;;7.17;4.13;;;27.00;42.60;;;;;;4984713;28;21356;-84
2022/08/11 06:47:21;;;;;;;4.30;3.87;;;25.80;44.80;;;;;;4982673;28;20455;-84
2022/08/11 06:52:45;;;;;;;5.00;4.27;;;24.90;47.20;;;;;;4983805;28;20463;-84
2022/08/11 07:00:26;;;;;;;3.97;3.60;;;24.60;47.90;;;;;;4980943;28;20483;-83
2022/08/11 07:01:46;;;;;;;4.17;3.80;;;24.50;48.50;;;;;;4982290;28;20490;-84
2022/08/11 07:04:28;;;;;;;4.43;4.03;;;24.40;48.50;;;;;;4978311;28;20475;-85
2022/08/11 07:16:16;;;;;;;4.60;3.83;;;25.60;47.00;;;;;;4981879;28;21023;-85
2022/08/11 07:30:20;;;;;;;3.50;3.20;;;27.50;43.10;;;;;;4979121;28;21879;-85
2022/08/11 07:32:53;;;;;;;6.50;3.70;;;28.10;42.20;;;;;;4982455;28;20511;-84
2022/08/11 07:35:26;;;;;;;3.83;3.53;;;29.20;40.40;;;;;;4984173;28;20531;-86
2022/08/11 07:38:00;;;;;;;5.10;4.07;;;31.20;37.80;;;;;;4985215;28;20486;-84
2022/08/11 07:40:28;;;;;;;3.70;3.40;;;33.30;35.00;;;;;;4986242;28;21548;-85
2022/08/11 07:42:57;;;;;;;4.87;4.37;;;34.80;33.10;;;;;;4969214;28;20475;-86
2022/08/11 07:53:49;;;;;;;3.20;2.90;;;37.00;29.70;;;;;;4984548;28;21097;-85
2022/08/11 07:56:25;;;;;;;2.93;2.73;;;38.80;28.40;;;;;;4982400;28;20561;-85
2022/08/11 08:20:29;;;;;;;5.43;2.93;;;38.50;27.30;;;;;;4998585;28;20481;-85
2022/08/11 08:23:12;;;;;;;3.10;2.90;;;38.30;27.20;;;;;;4995200;28;21003;-85
2022/08/11 08:25:44;;;;;;;5.93;3.30;;;39.50;26.20;;;;;;4994263;28;20454;-86
2022/08/11 08:28:16;;;;;;;3.33;3.10;;;39.70;26.00;;;;;;4990874;28;20541;-85
2022/08/11 08:30:46;;;;;;;3.80;2.80;;;39.80;25.90;;;;;;4987786;28;20454;-85
2022/08/11 08:33:21;;;;;;;3.57;3.37;;;39.50;25.90;;;;;;4990739;28;21460;-83
2022/08/11 08:36:10;;;;;;;3.87;3.10;;;39.80;25.60;;;;;;4988733;28;20465;-85
2022/08/11 08:38:47;;;;;;;3.13;2.93;;;39.80;25.40;;;;;;4989719;28;20476;-85
2022/08/11 08:41:21;;;;;;;3.53;3.23;;;39.70;25.70;;;;;;4971310;28;20510;-84
2022/08/11 08:43:53;;;;;;;3.43;3.23;;;39.40;25.70;;;;;;5000363;23;20500;-86
2022/08/11 08:46:29;;;;;;;3.27;3.07;;;39.50;25.50;;;;;;4989701;28;20487;-84
2022/08/11 08:49:05;;;;;;;5.87;3.23;;;39.60;25.50;;;;;;4990892;28;20449;-87
2022/08/11 08:51:42;;;;;;;3.20;2.90;;;39.20;25.50;;;;;;4995748;28;20510;-85
2022/08/11 08:54:48;;;;;;;2.93;2.70;;;39.30;25.30;;;;;;4959726;28;20492;-84
2022/08/11 08:57:30;;;;;;;3.20;2.67;;;38.60;25.50;;;;;;4969210;28;20442;-85
2022/08/11 09:00:06;;;;;;;3.10;2.90;;;37.60;26.30;;;;;;4960844;28;22406;-84
2022/08/11 09:02:38;;;;;;;3.80;3.50;;;38.90;25.50;;;;;;4970653;28;20446;-84
2022/08/11 09:05:16;;;;;;;2.83;2.63;;;39.20;25.20;;;;;;4971146;28;20463;-86
2022/08/11 09:07:56;;;;;;;3.10;2.90;;;39.20;24.70;;;;;;4956771;28;20571;-84
2022/08/11 09:10:37;;;;;;;2.60;2.40;;;39.30;24.50;;;;;;4955326;28;20541;-84
2022/08/11 09:13:12;;;;;;;5.23;3.23;;;39.30;24.50;;;;;;4974160;28;20636;-86
2022/08/11 09:15:47;;;;;;;2.53;2.33;;;39.20;24.60;;;;;;4956879;28;20463;-86
2022/08/11 09:18:31;;;;;;;3.20;3.00;;;38.80;24.70;;;;;;4960103;28;20554;-85
2022/08/11 09:21:14;;;;;;;3.70;2.70;;;38.50;24.80;;;;;;4973172;28;20515;-85
2022/08/11 09:27:16;;;;;;;3.30;3.10;;;38.70;25.00;;;;;;4977026;28;20486;-85
2022/08/11 09:30:10;;;;;;;3.10;2.80;;;39.20;24.60;;;;;;4957414;28;20956;-86
2022/08/11 09:32:42;;;;;;;2.80;2.60;;;39.30;24.30;;;;;;4973972;28;20460;-84
2022/08/11 09:35:20;;;;;;;2.93;2.73;;;39.00;24.20;;;;;;4973131;28;20455;-86
2022/08/11 09:40:40;;;;;;;3.07;2.87;;;39.30;24.50;;;;;;4972268;28;20483;-87
2022/08/11 09:46:34;;;;;;;2.53;2.33;;;38.80;24.30;;;;;;4969546;28;20558;-85
2022/08/11 09:49:13;;;;;;;2.00;1.90;;;38.40;24.50;;;;;;4967559;28;20447;-87
2022/08/11 09:51:53;;;;;;;2.40;2.20;;;38.60;24.50;;;;;;4958951;28;20468;-85
2022/08/11 09:54:46;;;;;;;2.43;2.23;;;39.30;24.10;;;;;;4971491;28;20518;-85
2022/08/11 10:00:13;;;;;;;2.97;2.63;;;39.80;23.30;;;;;;4975880;28;20560;-85
2022/08/11 10:03:01;;;;;;;5.20;2.30;;;39.00;23.60;;;;;;4961054;28;20916;-84
2022/08/11 10:08:43;;;;;;;2.37;2.27;;;38.90;23.40;;;;;;4975409;28;20474;-86
2022/08/11 10:11:24;;;;;;;2.30;2.10;;;38.50;23.80;;;;;;4972482;28;20501;-85
2022/08/11 10:17:12;;;;;;;3.10;2.87;;;38.00;24.40;;;;;;4971387;28;20471;-84
2022/08/11 10:19:45;;;;;;;2.10;2.00;;;37.90;24.30;;;;;;4955842;28;20443;-86
2022/08/11 10:28:11;;;;;;;2.70;2.50;;;38.70;23.50;;;;;;4970654;28;20447;-84
2022/08/11 10:33:59;;;;;;;2.63;2.43;;;37.60;24.10;;;;;;4971311;28;20982;-85
2022/08/11 10:36:34;;;;;;;2.33;2.13;;;37.50;24.60;;;;;;4951923;28;20471;-84
2022/08/11 10:39:04;;;;;;;5.57;3.27;;;37.00;24.80;;;;;;4957660;28;20464;-85
2022/08/11 10:44:36;;;;;;;3.53;2.10;;;37.30;24.60;;;;;;4975064;28;20530;-84
2022/08/11 10:59:08;;;;;;;2.33;2.23;;;39.30;22.80;;;;;;4978369;28;20459;-82
2022/08/11 11:01:44;;;;;;;3.33;2.47;;;38.70;22.90;;;;;;4960188;28;20480;-84
2022/08/11 11:04:51;;;;;;;2.20;2.10;;;37.40;23.90;;;;;;4959571;28;20547;-83
2022/08/11 11:07:52;;;;;;;2.43;2.23;;;37.40;23.90;;;;;;4960595;28;20495;-83
2022/08/11 11:18:10;;;;;;;;;;;;;;;;;;;;;
2022/08/11 11:21:25;;;;;;;2.87;2.30;;;36.80;24.00;;;;;;4971575;28;20477;-86
2022/08/11 11:24:57;;;;;;;2.80;2.60;;;37.40;23.50;;;;;;4982273;28;20533;-83
2022/08/11 11:28:20;;;;;;;2.47;2.37;;;37.30;23.90;;;;;;4976897;28;20869;-82
2022/08/11 11:31:26;;;;;;;2.50;2.40;;;37.60;24.10;;;;;;4941272;28;20540;-85
2022/08/11 11:40:23;;;;;;;2.33;2.20;;;37.30;24.00;;;;;;4997632;28;20963;-85
2022/08/11 11:43:13;;;;;;;2.57;2.47;;;37.40;24.00;;;;;;4989687;28;20498;-86
2022/08/11 11:46:03;;;;;;;2.30;2.20;;;37.30;24.00;;;;;;4980781;28;20516;-87
2022/08/11 11:48:54;;;;;;;2.37;2.27;;;38.00;23.40;;;;;;5012831;28;20452;-86
2022/08/11 11:54:32;;;;;;;2.63;2.53;;;38.00;23.00;;;;;;4994344;28;20481;-84
2022/08/11 12:03:44;;;;;;;3.33;2.97;;;37.10;24.20;;;;;;4995949;28;20459;-83
2022/08/11 12:08:08;;;;;;;2.77;2.57;;;36.60;24.30;;;;;;4985466;28;20466;-84
2022/08/11 12:09:42;;;;;;;3.23;2.97;;;36.20;25.00;;;;;;4996366;28;20466;-83
2022/08/11 12:15:09;;;;;;;2.77;2.57;;;36.60;24.30;;;;;;4992863;28;20583;-83
2022/08/11 12:18:01;;;;;;;4.33;3.13;;;36.60;24.50;;;;;;4995431;28;20964;-81
2022/08/11 12:20:32;;;;;;;2.70;2.50;;;37.00;24.20;;;;;;4989959;28;20568;-84
2022/08/11 12:29:14;;;;;;;2.87;2.67;;;37.50;23.80;;;;;;4994123;28;20455;-82
2022/08/11 12:31:50;;;;;;;2.77;2.60;;;37.60;23.40;;;;;;4983164;28;20466;-84
2022/08/11 12:34:28;;;;;;;3.43;2.67;;;37.30;23.70;;;;;;4991136;28;20513;-84
2022/08/11 12:37:09;;;;;;;3.40;3.10;;;37.40;23.60;;;;;;4981261;28;20481;-84
2022/08/11 12:46:17;;;;;;;2.60;2.50;;;37.00;24.10;;;;;;4996477;28;21070;-86
2022/08/11 12:51:58;;;;;;;3.10;2.80;;;36.70;24.50;;;;;;4994717;28;20578;-85
2022/08/11 12:54:45;;;;;;;2.80;2.60;;;36.70;24.50;;;;;;4982902;28;20494;-85
2022/08/11 13:06:24;;;;;;;3.03;2.83;;;37.20;23.80;;;;;;4997194;28;20459;-84
2022/08/11 13:08:59;;;;;;;2.70;2.50;;;36.90;23.90;;;;;;4986252;28;20490;-85
2022/08/11 13:14:26;;;;;;;3.23;2.77;;;36.90;24.30;;;;;;4998245;28;20462;-85
2022/08/11 13:20:21;;;;;;;;;;;;;;;;;;;;;
2022/08/11 13:23:24;;;;;;;2.63;2.43;;;37.30;24.30;;;;;;5002863;28;20474;-86
2022/08/11 13:25:57;;;;;;;2.50;2.30;;;37.50;24.10;;;;;;4990860;28;20451;-87
2022/08/11 13:28:27;;;;;;;2.90;2.70;;;37.40;24.10;;;;;;4994289;28;20493;-85
2022/08/11 13:32:03;;;;;;;2.53;2.43;;;37.40;24.00;;;;;;4982206;28;20501;-85
2022/08/11 13:34:42;;;;;;;3.20;3.00;;;36.90;24.30;;;;;;4942702;28;20480;-85
2022/08/11 13:37:22;;;;;;;2.40;2.20;;;36.90;24.20;;;;;;4941297;28;20441;-81
2022/08/11 13:40:17;;;;;;;2.70;2.60;;;36.50;24.30;;;;;;4982643;28;20482;-84
2022/08/11 13:42:59;;;;;;;4.10;2.53;;;36.30;24.80;;;;;;4985091;28;20514;-85
2022/08/11 13:45:31;;;;;;;5.87;3.10;;;36.40;24.60;;;;;;4974080;28;20555;-88
2022/08/11 13:48:07;;;;;;;3.63;2.80;;;36.50;24.80;;;;;;4978970;28;20863;-85
2022/08/11 13:53:32;;;;;;;2.90;2.73;;;36.80;24.50;;;;;;4990221;28;20485;-85
2022/08/11 14:00:08;;;;;;;2.20;2.10;;;36.70;24.50;;;;;;5002429;28;20513;-84
2022/08/11 14:02:40;;;;;;;2.80;2.40;;;36.40;24.60;;;;;;5014149;28;20459;-84
2022/08/11 14:05:24;;;;;;;2.30;2.20;;;36.60;24.60;;;;;;5002072;28;20454;-86
2022/08/11 14:08:08;;;;;;;2.90;2.70;;;36.90;24.20;;;;;;4997158;28;20447;-83
2022/08/11 14:10:38;;;;;;;2.90;2.70;;;36.50;24.20;;;;;;5008013;28;20526;-85
2022/08/11 14:16:17;;;;;;;3.20;2.90;;;35.90;24.80;;;;;;4996023;28;20493;-83
2022/08/11 14:18:47;;;;;;;2.90;2.70;;;36.20;24.50;;;;;;4983222;28;20880;-83
2022/08/11 14:24:06;;;;;;;3.50;3.20;;;35.90;24.90;;;;;;4993673;28;20474;-84
2022/08/11 14:26:37;;;;;;;2.97;2.77;;;35.90;24.80;;;;;;4993699;28;20463;-84
2022/08/11 14:29:12;;;;;;;2.80;2.60;;;35.50;25.20;;;;;;4979538;28;20522;-84
2022/08/11 14:31:47;;;;;;;2.90;2.70;;;35.20;25.30;;;;;;4994415;28;20532;-83
2022/08/11 14:34:20;;;;;;;3.70;2.77;;;35.30;25.30;;;;;;4994796;28;20505;-84
2022/08/11 14:36:53;;;;;;;2.70;2.60;;;35.50;25.40;;;;;;4987489;28;20470;-85
2022/08/11 14:39:29;;;;;;;3.67;2.80;;;35.70;25.40;;;;;;4996183;28;20549;-86
2022/08/11 14:47:50;;;;;;;3.47;3.23;;;35.80;25.00;;;;;;4997626;28;20470;-85
2022/08/11 14:50:25;;;;;;;3.20;3.00;;;35.80;24.70;;;;;;4981805;28;20487;-85
2022/08/11 14:52:58;;;;;;;3.27;2.97;;;35.50;25.00;;;;;;4991180;28;20490;-82
2022/08/11 14:58:18;;;;;;;3.10;2.90;;;35.60;25.20;;;;;;5002253;28;20465;-85
2022/08/11 15:00:55;;;;;;;3.37;3.17;;;35.50;25.10;;;;;;4993362;28;20459;-86
2022/08/11 15:03:32;;;;;;;3.10;2.90;;;35.00;25.20;;;;;;4999217;28;20470;-86
2022/08/11 15:06:01;;;;;;;3.20;3.00;;;34.70;25.80;;;;;;4995422;28;20459;-83
2022/08/11 15:14:08;;;;;;;4.23;3.93;;;35.00;25.90;;;;;;4992961;28;20924;-83
2022/08/11 15:19:29;;;;;;;3.07;2.87;;;35.20;25.90;;;;;;4994278;28;20508;-83
2022/08/11 15:25:46;;;;;;;;;;;;;;;;;;;;;
2022/08/11 15:37:30;;;;;;;4.23;3.20;;;34.50;26.20;;;;;;4991068;28;20482;-83
2022/08/11 15:47:04;;;;;;;3.53;3.33;;;34.40;26.20;;;;;;4945290;28;20568;-85
2022/08/11 15:49:36;;;;;;;3.10;2.90;;;34.60;26.40;;;;;;4981830;28;20450;-86
2022/08/11 15:52:31;;;;;;;2.80;2.67;;;34.70;26.40;;;;;;5000792;28;20478;-83
2022/08/11 15:55:09;;;;;;;3.30;3.10;;;34.90;26.40;;;;;;4993578;28;20466;-82
2022/08/11 16:04:17;;;;;;;4.10;3.80;;;34.50;26.50;;;;;;5188077;22;20504;-86
2022/08/11 16:07:15;;;;;;;4.00;3.50;;;34.70;26.50;;;;;;5018134;28;20456;-86
2022/08/11 16:10:10;;;;;;;4.07;3.57;;;34.40;26.70;;;;;;5040084;28;20506;-82
2022/08/11 16:16:17;;;;;;;3.67;3.37;;;34.30;26.80;;;;;;5011058;28;20430;-85
2022/08/11 16:18:55;;;;;;;3.63;3.40;;;34.40;26.60;;;;;;5035697;28;20720;-86
2022/08/11 16:21:42;;;;;;;5.10;3.40;;;34.30;26.30;;;;;;5012234;28;20472;-86
2022/08/11 16:24:13;;;;;;;3.90;3.60;;;34.00;26.60;;;;;;5019910;28;20509;-85
2022/08/11 16:27:03;;;;;;;3.20;3.00;;;34.10;26.60;;;;;;5016179;28;20576;-84
2022/08/11 16:29:46;;;;;;;3.67;3.00;;;34.10;26.50;;;;;;5017893;28;20449;-83
2022/08/11 16:32:22;;;;;;;3.40;3.20;;;34.00;26.70;;;;;;5023459;28;20453;-81
2022/08/11 16:40:51;;;;;;;4.40;3.80;;;34.10;26.60;;;;;;5016958;28;20473;-84
2022/08/11 16:48:52;;;;;;;3.80;3.33;;;34.10;26.80;;;;;;5019906;28;20454;-85
2022/08/11 16:51:20;;;;;;;3.33;3.03;;;34.20;27.00;;;;;;5012586;28;20543;-86
2022/08/11 16:53:51;;;;;;;3.70;3.40;;;34.10;27.10;;;;;;5002067;28;20486;-84
2022/08/11 16:56:42;;;;;;;3.83;3.63;;;34.10;27.60;;;;;;4994128;28;20964;-85
2022/08/11 16:59:32;;;;;;;3.60;3.30;;;34.10;27.90;;;;;;4998846;28;20447;-84
2022/08/11 17:02:09;;;;;;;4.03;3.73;;;34.30;27.20;;;;;;5000331;28;20551;-82
2022/08/11 17:14:00;;;;;;;4.10;3.70;;;34.10;26.70;;;;;;5012576;28;20478;-84
2022/08/11 17:16:33;;;;;;;4.17;3.50;;;34.10;26.70;;;;;;4998611;28;20493;-85
2022/08/11 17:19:15;;;;;;;3.83;3.53;;;33.90;26.80;;;;;;5009507;28;20469;-87
2022/08/11 17:25:14;;;;;;;3.47;3.27;;;33.80;27.00;;;;;;5012655;28;20473;-85
2022/08/11 17:27:52;;;;;;;3.73;3.53;;;33.90;26.90;;;;;;5000823;28;20458;-83
2022/08/11 17:36:04;;;;;;;3.17;2.97;;;33.60;27.00;;;;;;5017503;28;20476;-83
2022/08/11 17:38:38;;;;;;;4.83;3.33;;;33.80;26.70;;;;;;5001147;28;20477;-83
2022/08/11 17:50:46;;;;;;;;;;;;;;;;;;;;;
2022/08/11 17:59:50;;;;;;;3.73;3.40;;;33.00;28.30;;;;;;5011253;28;20466;-85
2022/08/11 18:05:26;;;;;;;4.33;4.03;;;33.00;28.20;;;;;;5010825;28;20853;-85
